createdAt,value
2023-01-29T00:01:37.982Z,12.47
2023-01-29T00:04:04.959Z,11.70
2023-01-29T00:06:32.163Z,11.70
2023-01-29T00:08:58.898Z,12.43
2023-01-29T00:11:32.096Z,12.33
2023-01-29T00:13:59.184Z,12.60
2023-01-29T00:16:27.342Z,12.33
2023-01-29T00:18:54.121Z,12.20
2023-01-29T00:21:27.052Z,12.30
2023-01-29T00:23:55.521Z,12.27
2023-01-29T00:26:22.652Z,12.30
2023-01-29T00:28:49.347Z,12.70
2023-01-29T00:31:22.189Z,11.90
2023-01-29T00:33:49.810Z,12.17
2023-01-29T00:36:19.048Z,12.00
2023-01-29T00:38:54.446Z,11.80
2023-01-29T00:41:40.599Z,12.50
2023-01-29T00:44:26.612Z,11.97
2023-01-29T00:46:53.443Z,11.60
2023-01-29T00:49:20.376Z,11.83
2023-01-29T00:52:10.562Z,11.80
2023-01-29T00:54:37.423Z,11.17
2023-01-29T00:57:04.419Z,12.37
2023-01-29T00:59:31.220Z,11.80
2023-01-29T01:02:16.562Z,11.63
2023-01-29T01:04:43.302Z,11.50
2023-01-29T01:09:55.950Z,11.10
2023-01-29T01:12:22.864Z,12.80
2023-01-29T01:14:50.076Z,12.47
2023-01-29T01:17:16.916Z,12.53
2023-01-29T01:19:43.715Z,12.17
2023-01-29T01:22:11.091Z,11.97
2023-01-29T01:24:38.570Z,12.17
2023-01-29T01:27:06.020Z,11.70
2023-01-29T01:29:33.015Z,12.20
2023-01-29T01:32:00.042Z,11.80
2023-01-29T01:34:29.690Z,12.50
2023-01-29T01:37:00.142Z,12.20
2023-01-29T01:39:31.191Z,11.70
2023-01-29T01:41:58.975Z,12.10
2023-01-29T01:44:52.495Z,12.80
2023-01-29T01:47:42.753Z,12.30
2023-01-29T01:50:37.576Z,12.23
2023-01-29T01:53:18.367Z,12.20
2023-01-29T01:55:52.851Z,11.63
2023-01-29T01:58:51.887Z,12.07
2023-01-29T02:01:26.476Z,11.90
2023-01-29T02:04:27.399Z,11.87
2023-01-29T02:07:14.274Z,11.80
2023-01-29T02:09:46.490Z,12.90
2023-01-29T02:12:15.946Z,11.80
2023-01-29T02:14:43.513Z,12.13
2023-01-29T02:17:14.155Z,11.53
2023-01-29T02:19:59.571Z,11.87
2023-01-29T02:22:47.704Z,12.03
2023-01-29T02:25:52.782Z,12.30
2023-01-29T02:28:53.650Z,12.73
2023-01-29T02:31:34.448Z,11.97
2023-01-29T02:34:17.891Z,12.23
2023-01-29T02:36:50.039Z,12.40
2023-01-29T02:39:36.472Z,12.00
2023-01-29T02:42:23.222Z,12.00
2023-01-29T02:45:01.530Z,12.10
2023-01-29T02:47:47.553Z,12.90
2023-01-29T02:50:20.274Z,12.10
2023-01-29T02:53:07.812Z,12.40
2023-01-29T02:55:37.851Z,12.20
2023-01-29T02:58:18.093Z,12.07
2023-01-29T03:00:47.525Z,11.97
2023-01-29T03:03:32.357Z,12.00
2023-01-29T03:06:06.355Z,12.43
2023-01-29T03:08:45.702Z,12.20
2023-01-29T03:11:15.099Z,13.03
2023-01-29T03:13:50.805Z,12.43
2023-01-29T03:16:34.151Z,13.40
2023-01-29T03:19:03.214Z,12.47
2023-01-29T03:21:51.200Z,12.70
2023-01-29T03:25:07.308Z,12.30
2023-01-29T03:28:06.412Z,12.60
2023-01-29T03:30:57.302Z,11.73
2023-01-29T03:33:32.566Z,12.80
2023-01-29T03:36:06.657Z,11.90
2023-01-29T03:38:33.507Z,12.53
2023-01-29T03:41:12.237Z,12.87
2023-01-29T03:44:00.472Z,12.63
2023-01-29T03:46:35.459Z,12.80
2023-01-29T03:49:32.865Z,13.30
2023-01-29T03:52:03.687Z,12.70
2023-01-29T03:54:50.066Z,13.13
2023-01-29T03:57:25.783Z,12.43
2023-01-29T04:00:04.539Z,12.40
2023-01-29T04:02:58.705Z,13.07
2023-01-29T04:05:30.500Z,11.77
2023-01-29T04:08:15.586Z,11.57
2023-01-29T04:10:48.025Z,12.80
2023-01-29T04:13:17.698Z,12.40
2023-01-29T04:15:49.391Z,12.77
2023-01-29T04:18:16.185Z,12.93
2023-01-29T04:20:43.756Z,12.67
2023-01-29T04:23:24.851Z,12.30
2023-01-29T04:26:17.703Z,12.93
2023-01-29T04:28:58.797Z,12.60
2023-01-29T04:31:33.080Z,11.87
2023-01-29T04:34:13.343Z,12.40
2023-01-29T04:37:17.679Z,12.40
2023-01-29T04:40:16.081Z,12.33
2023-01-29T04:42:49.339Z,12.47
2023-01-29T04:45:25.929Z,12.17
2023-01-29T04:47:55.658Z,12.03
2023-01-29T04:50:38.926Z,12.30
2023-01-29T04:53:48.165Z,11.77
2023-01-29T04:56:50.073Z,12.67
2023-01-29T04:59:33.673Z,11.70
2023-01-29T05:02:04.570Z,12.23
2023-01-29T05:04:37.211Z,12.40
2023-01-29T05:07:09.276Z,11.90
2023-01-29T05:09:38.637Z,12.70
2023-01-29T05:12:10.651Z,12.20
2023-01-29T05:14:40.053Z,12.47
2023-01-29T05:17:12.837Z,12.17
2023-01-29T05:19:39.468Z,12.47
2023-01-29T05:22:08.817Z,12.57
2023-01-29T05:24:36.874Z,12.17
2023-01-29T05:27:22.689Z,12.73
2023-01-29T05:29:49.370Z,12.40
2023-01-29T05:32:16.483Z,13.20
2023-01-29T05:34:43.105Z,12.37
2023-01-29T05:37:10.808Z,12.47
2023-01-29T05:39:37.452Z,12.70
2023-01-29T05:42:04.641Z,12.97
2023-01-29T05:44:31.333Z,12.73
2023-01-29T05:46:57.955Z,13.10
2023-01-29T05:49:24.567Z,13.07
2023-01-29T05:51:51.275Z,13.17
2023-01-29T05:54:17.954Z,12.30
2023-01-29T05:56:44.596Z,12.40
2023-01-29T05:59:11.227Z,12.00
2023-01-29T06:01:37.944Z,11.77
2023-01-29T06:04:10.602Z,12.30
2023-01-29T06:06:38.765Z,12.60
2023-01-29T06:09:05.365Z,13.00
2023-01-29T06:11:32.014Z,13.30
2023-01-29T06:13:58.641Z,11.97
2023-01-29T06:16:25.318Z,12.47
2023-01-29T06:18:51.954Z,12.63
2023-01-29T06:21:20.116Z,12.50
2023-01-29T06:23:46.946Z,12.53
2023-01-29T06:26:15.558Z,12.67
2023-01-29T06:28:42.496Z,12.10
2023-01-29T06:31:37.815Z,12.87
2023-01-29T06:33:56.956Z,13.03
2023-01-29T06:36:23.643Z,11.87
2023-01-29T06:38:50.309Z,11.73
2023-01-29T06:41:18.989Z,11.97
2023-01-29T06:43:46.129Z,11.53
2023-01-29T06:46:13.220Z,11.77
2023-01-29T06:48:39.967Z,12.17
2023-01-29T06:51:08.386Z,11.80
2023-01-29T06:53:36.055Z,11.10
2023-01-29T06:56:02.869Z,12.50
2023-01-29T06:58:29.679Z,14.00
2023-01-29T07:01:10.085Z,13.13
2023-01-29T07:03:36.922Z,12.70
2023-01-29T07:06:04.159Z,12.40
2023-01-29T07:08:30.837Z,12.83
2023-01-29T07:11:01.088Z,12.83
2023-01-29T07:13:27.896Z,11.77
2023-01-29T07:15:54.871Z,12.63
2023-01-29T07:18:21.537Z,12.23
2023-01-29T07:20:48.200Z,13.10
2023-01-29T07:23:15.804Z,14.63
2023-01-29T07:25:42.546Z,14.33
2023-01-29T07:28:09.382Z,18.40
2023-01-29T07:30:36.273Z,19.43
2023-01-29T07:33:07.363Z,18.97
2023-01-29T07:35:39.452Z,16.30
2023-01-29T07:38:07.289Z,14.87
2023-01-29T07:40:36.544Z,14.33
2023-01-29T07:43:06.002Z,15.60
2023-01-29T07:45:35.105Z,16.00
2023-01-29T07:48:05.975Z,15.07
2023-01-29T07:50:34.445Z,16.67
2023-01-29T07:53:01.777Z,16.97
2023-01-29T07:55:30.454Z,18.47
2023-01-29T07:58:02.405Z,17.10
2023-01-29T08:00:30.741Z,15.87
2023-01-29T08:03:11.403Z,16.50
2023-01-29T08:06:02.880Z,16.97
2023-01-29T08:08:32.652Z,16.97
2023-01-29T08:11:09.270Z,16.23
2023-01-29T08:13:36.178Z,14.60
2023-01-29T08:16:07.795Z,15.77
2023-01-29T08:18:48.459Z,19.07
2023-01-29T08:21:16.954Z,19.80
2023-01-29T08:23:50.751Z,20.23
2023-01-29T08:26:17.375Z,17.00
2023-01-29T08:28:44.187Z,22.77
2023-01-29T08:31:15.912Z,39.23
2023-01-29T08:33:42.837Z,30.27
2023-01-29T08:36:11.785Z,28.40
2023-01-29T08:38:41.702Z,21.93
2023-01-29T08:41:12.403Z,20.53
2023-01-29T08:43:39.525Z,19.17
2023-01-29T08:46:10.725Z,18.53
2023-01-29T08:48:37.439Z,18.93
2023-01-29T08:51:04.760Z,18.97
2023-01-29T08:53:32.527Z,17.70
2023-01-29T08:55:59.209Z,16.83
2023-01-29T08:58:26.824Z,16.67
2023-01-29T09:00:53.744Z,17.60
2023-01-29T09:03:20.620Z,18.10
2023-01-29T09:05:47.361Z,17.87
2023-01-29T09:08:15.383Z,16.50
2023-01-29T09:10:42.051Z,17.53
2023-01-29T09:13:08.699Z,15.70
2023-01-29T09:15:35.334Z,15.70
2023-01-29T09:18:05.598Z,15.07
2023-01-29T09:20:32.735Z,14.07
2023-01-29T09:23:03.795Z,14.07
2023-01-29T09:25:31.542Z,14.40
2023-01-29T09:27:58.155Z,15.40
2023-01-29T09:30:24.882Z,15.03
2023-01-29T09:32:54.158Z,14.53
2023-01-29T09:35:23.336Z,14.53
2023-01-29T09:37:50.877Z,14.70
2023-01-29T09:40:33.945Z,14.83
2023-01-29T09:43:23.868Z,14.43
2023-01-29T09:45:56.800Z,14.53
2023-01-29T09:48:27.341Z,15.20
2023-01-29T09:50:58.725Z,14.70
2023-01-29T09:53:40.324Z,14.97
2023-01-29T09:56:28.957Z,14.70
2023-01-29T09:59:01.278Z,15.10
2023-01-29T10:01:42.926Z,14.93
2023-01-29T10:04:37.684Z,15.33
2023-01-29T10:07:31.005Z,15.30
2023-01-29T10:10:25.925Z,15.57
2023-01-29T10:13:24.469Z,15.00
2023-01-29T10:16:01.315Z,14.67
2023-01-29T10:18:47.204Z,14.90
2023-01-29T10:22:00.856Z,13.53
2023-01-29T10:24:50.355Z,13.87
2023-01-29T10:27:19.288Z,14.90
2023-01-29T10:29:50.974Z,15.77
2023-01-29T10:32:21.226Z,13.83
2023-01-29T10:34:59.816Z,14.97
2023-01-29T10:37:39.803Z,14.93
2023-01-29T10:40:18.776Z,14.50
2023-01-29T10:43:04.965Z,14.83
2023-01-29T10:45:43.441Z,15.70
2023-01-29T10:48:30.385Z,17.40
2023-01-29T10:51:26.744Z,14.17
2023-01-29T10:54:38.382Z,13.70
2023-01-29T10:57:07.942Z,14.73
2023-01-29T11:00:02.379Z,14.50
2023-01-29T11:02:29.141Z,14.60
2023-01-29T11:04:55.827Z,14.93
2023-01-29T11:07:23.091Z,14.97
2023-01-29T11:10:03.057Z,15.07
2023-01-29T11:12:31.295Z,15.83
2023-01-29T11:15:16.504Z,14.07
2023-01-29T11:18:05.101Z,15.13
2023-01-29T11:20:33.001Z,15.87
2023-01-29T11:23:00.490Z,13.40
2023-01-29T11:25:29.756Z,14.17
2023-01-29T11:28:00.864Z,13.67
2023-01-29T11:30:33.933Z,13.80
2023-01-29T11:33:18.263Z,14.47
2023-01-29T11:35:45.087Z,14.03
2023-01-29T11:38:14.565Z,14.40
2023-01-29T11:40:42.691Z,14.00
2023-01-29T11:43:27.693Z,14.60
2023-01-29T11:46:03.082Z,14.77
2023-01-29T11:48:46.003Z,13.77
2023-01-29T11:51:22.196Z,13.80
2023-01-29T11:54:04.599Z,13.57
2023-01-29T11:56:43.516Z,13.83
2023-01-29T11:59:37.563Z,13.73
2023-01-29T12:02:18.122Z,13.27
2023-01-29T12:04:45.094Z,13.80
2023-01-29T12:07:17.593Z,13.70
2023-01-29T12:10:00.270Z,14.33
2023-01-29T12:12:32.906Z,13.67
2023-01-29T12:15:25.104Z,14.00
2023-01-29T12:18:12.082Z,13.30
2023-01-29T12:20:56.083Z,13.83
2023-01-29T12:23:47.139Z,14.00
2023-01-29T12:26:26.996Z,14.13
2023-01-29T12:29:08.947Z,14.13
2023-01-29T12:31:55.842Z,14.00
2023-01-29T12:34:39.268Z,14.10
2023-01-29T12:37:29.298Z,15.00
2023-01-29T12:39:56.025Z,13.53
2023-01-29T12:42:24.375Z,13.80
2023-01-29T12:45:01.466Z,13.40
2023-01-29T12:47:38.293Z,13.00
2023-01-29T12:50:18.972Z,13.33
2023-01-29T12:52:54.567Z,13.50
2023-01-29T12:55:44.560Z,13.37
2023-01-29T12:58:30.593Z,13.40
2023-01-29T13:01:03.370Z,13.43
2023-01-29T13:03:36.499Z,14.20
2023-01-29T13:06:09.601Z,13.10
2023-01-29T13:08:41.769Z,13.60
2023-01-29T13:11:14.469Z,14.30
2023-01-29T13:13:54.608Z,14.23
2023-01-29T13:16:27.945Z,13.83
2023-01-29T13:19:05.103Z,13.63
2023-01-29T13:21:40.750Z,13.50
2023-01-29T13:24:16.224Z,13.77
2023-01-29T13:26:47.782Z,14.07
2023-01-29T13:29:30.962Z,14.10
2023-01-29T13:32:00.482Z,14.10
2023-01-29T13:34:31.718Z,13.70
2023-01-29T13:37:09.664Z,14.07
2023-01-29T13:39:44.480Z,13.63
2023-01-29T13:42:21.443Z,14.20
2023-01-29T13:44:55.540Z,14.13
2023-01-29T13:47:38.167Z,14.90
2023-01-29T13:50:18.110Z,14.57
2023-01-29T13:53:01.735Z,14.13
2023-01-29T13:55:32.881Z,14.00
2023-01-29T13:58:31.536Z,14.13
2023-01-29T14:01:01.044Z,13.60
2023-01-29T14:03:32.150Z,14.20
2023-01-29T14:06:02.864Z,14.17
2023-01-29T14:08:35.369Z,14.47
2023-01-29T14:11:28.416Z,13.90
2023-01-29T14:13:55.091Z,14.67
2023-01-29T14:16:21.645Z,14.93
2023-01-29T14:18:55.485Z,14.73
2023-01-29T14:21:29.817Z,15.13
2023-01-29T14:23:59.249Z,15.30
2023-01-29T14:26:45.191Z,14.40
2023-01-29T14:29:35.461Z,14.70
2023-01-29T14:32:21.307Z,14.73
2023-01-29T14:35:02.049Z,14.70
2023-01-29T14:37:36.566Z,14.53
2023-01-29T14:40:12.001Z,14.60
2023-01-29T14:43:19.728Z,14.10
2023-01-29T14:45:48.459Z,14.13
2023-01-29T14:48:46.558Z,14.90
2023-01-29T14:51:15.271Z,15.10
2023-01-29T14:54:06.110Z,14.30
2023-01-29T14:56:40.768Z,14.80
2023-01-29T14:59:21.913Z,14.60
2023-01-29T15:01:55.296Z,15.07
2023-01-29T15:04:53.964Z,14.97
2023-01-29T15:07:27.720Z,15.30
2023-01-29T15:10:21.385Z,15.00
2023-01-29T15:13:04.805Z,15.07
2023-01-29T15:15:53.881Z,15.60
2023-01-29T15:18:42.457Z,15.53
2023-01-29T15:21:14.861Z,15.13
2023-01-29T15:23:43.145Z,15.67
2023-01-29T15:26:12.297Z,15.50
2023-01-29T15:28:39.739Z,15.70
2023-01-29T15:31:13.248Z,15.37
2023-01-29T15:33:44.681Z,15.93
2023-01-29T15:36:20.804Z,15.60
2023-01-29T15:38:47.464Z,15.27
2023-01-29T15:41:23.731Z,16.70
2023-01-29T15:43:57.003Z,18.37
2023-01-29T15:46:28.220Z,16.53
2023-01-29T15:48:56.815Z,16.10
2023-01-29T15:51:26.869Z,16.03
2023-01-29T15:53:57.698Z,16.33
2023-01-29T15:56:29.090Z,16.37
2023-01-29T15:58:59.014Z,16.03
2023-01-29T16:01:29.179Z,17.83
2023-01-29T16:03:59.432Z,15.33
2023-01-29T16:06:26.813Z,17.03
2023-01-29T16:08:55.327Z,15.67
2023-01-29T16:11:22.284Z,15.80
2023-01-29T16:13:50.621Z,16.27
2023-01-29T16:16:27.899Z,17.70
2023-01-29T16:19:00.554Z,17.70
2023-01-29T16:21:36.009Z,16.93
2023-01-29T16:24:09.653Z,15.33
2023-01-29T16:26:45.607Z,16.30
2023-01-29T16:29:22.298Z,17.73
2023-01-29T16:31:52.037Z,19.30
2023-01-29T16:34:41.826Z,21.90
2023-01-29T16:37:19.932Z,18.80
2023-01-29T16:39:49.060Z,20.00
2023-01-29T16:42:17.181Z,16.70
2023-01-29T16:45:00.725Z,18.73
2023-01-29T16:47:43.952Z,17.87
2023-01-29T16:50:40.614Z,19.30
2023-01-29T16:53:19.803Z,18.40
2023-01-29T16:55:49.440Z,17.37
2023-01-29T16:58:22.835Z,17.87
2023-01-29T17:01:10.513Z,18.27
2023-01-29T17:03:38.571Z,17.07
2023-01-29T17:06:13.675Z,17.93
2023-01-29T17:08:44.121Z,17.43
2023-01-29T17:11:13.641Z,17.67
2023-01-29T17:13:43.805Z,16.43
2023-01-29T17:16:22.457Z,17.13
2023-01-29T17:18:49.451Z,16.67
2023-01-29T17:21:16.203Z,17.20
2023-01-29T17:23:42.822Z,17.10
2023-01-29T17:26:12.938Z,17.53
2023-01-29T17:28:40.561Z,17.60
2023-01-29T17:31:07.886Z,20.97
2023-01-29T17:33:37.235Z,18.83
2023-01-29T17:36:04.084Z,19.17
2023-01-29T17:38:30.781Z,18.70
2023-01-29T17:41:24.716Z,19.83
2023-01-29T17:43:51.779Z,19.83
2023-01-29T17:46:19.802Z,18.90
2023-01-29T17:48:49.128Z,18.73
2023-01-29T17:51:17.707Z,20.50
2023-01-29T17:53:46.660Z,18.53
2023-01-29T17:56:21.218Z,19.83
2023-01-29T17:58:47.938Z,19.37
2023-01-29T18:01:14.761Z,19.40
2023-01-29T18:03:41.648Z,18.10
2023-01-29T18:06:09.376Z,18.10
2023-01-29T18:08:38.247Z,18.80
2023-01-29T18:11:05.253Z,18.27
2023-01-29T18:13:31.914Z,19.37
2023-01-29T18:15:58.617Z,19.23
2023-01-29T18:18:25.466Z,17.60
2023-01-29T18:20:52.158Z,19.10
2023-01-29T18:23:18.893Z,18.30
2023-01-29T18:25:45.594Z,19.03
2023-01-29T18:28:17.326Z,18.13
2023-01-29T18:30:46.999Z,17.40
2023-01-29T18:33:14.756Z,18.00
2023-01-29T18:35:41.438Z,17.47
2023-01-29T18:38:08.104Z,17.13
2023-01-29T18:40:34.811Z,18.20
2023-01-29T18:43:01.651Z,17.90
2023-01-29T18:45:28.837Z,17.70
2023-01-29T18:47:55.980Z,17.07
2023-01-29T18:50:26.329Z,18.43
2023-01-29T18:52:54.149Z,18.70
2023-01-29T18:55:21.937Z,18.10
2023-01-29T18:58:26.003Z,17.53
2023-01-29T19:00:38.985Z,17.43
2023-01-29T19:03:05.603Z,17.43
2023-01-29T19:05:33.945Z,14.10
2023-01-29T19:08:01.795Z,16.70
2023-01-29T19:10:28.538Z,13.63
2023-01-29T19:12:55.151Z,15.57
2023-01-29T19:15:22.667Z,14.47
2023-01-29T19:17:50.847Z,16.27
2023-01-29T19:20:18.044Z,17.53
2023-01-29T19:22:44.949Z,18.00
2023-01-29T19:25:12.699Z,17.67
2023-01-29T19:27:39.407Z,16.23
2023-01-29T19:30:06.939Z,17.50
2023-01-29T19:32:33.924Z,19.50
2023-01-29T19:35:00.604Z,18.90
2023-01-29T19:37:28.290Z,19.40
2023-01-29T19:39:54.978Z,17.63
2023-01-29T19:42:23.423Z,16.57
2023-01-29T19:44:51.169Z,18.23
2023-01-29T19:47:17.884Z,17.90
2023-01-29T19:49:44.827Z,18.03
2023-01-29T19:52:38.481Z,17.63
2023-01-29T19:55:08.735Z,16.90
2023-01-29T19:57:35.363Z,18.83
2023-01-29T20:00:02.276Z,15.87
2023-01-29T20:02:29.030Z,18.27
2023-01-29T20:04:55.883Z,16.70
2023-01-29T20:07:23.007Z,18.13
2023-01-29T20:09:51.918Z,19.33
2023-01-29T20:12:19.511Z,18.53
2023-01-29T20:14:48.833Z,18.10
2023-01-29T20:17:16.877Z,19.83
2023-01-29T20:19:44.835Z,17.20
2023-01-29T20:22:12.335Z,19.63
2023-01-29T20:24:42.271Z,20.00
2023-01-29T20:27:10.625Z,19.50
2023-01-29T20:29:39.105Z,19.57
2023-01-29T20:32:07.938Z,19.43
2023-01-29T20:34:35.354Z,18.80
2023-01-29T20:37:02.160Z,19.27
2023-01-29T20:39:28.861Z,19.90
2023-01-29T20:41:57.236Z,19.67
2023-01-29T20:44:24.800Z,20.23
2023-01-29T20:46:51.678Z,19.97
2023-01-29T20:49:19.161Z,19.27
2023-01-29T20:51:46.080Z,20.30
2023-01-29T20:54:12.934Z,19.63
2023-01-29T20:56:43.437Z,20.77
2023-01-29T20:59:11.152Z,21.43
2023-01-29T21:01:37.843Z,20.17
2023-01-29T21:04:04.542Z,19.67
2023-01-29T21:06:31.439Z,17.83
2023-01-29T21:08:58.201Z,18.63
2023-01-29T21:11:24.873Z,20.33
2023-01-29T21:13:54.795Z,19.07
2023-01-29T21:16:21.516Z,20.80
2023-01-29T21:18:48.184Z,12.50
2023-01-29T21:21:14.883Z,18.67
2023-01-29T21:23:41.563Z,19.10
2023-01-29T21:26:08.879Z,17.20
2023-01-29T21:28:35.699Z,16.33
2023-01-29T21:31:14.489Z,19.00
2023-01-29T21:33:41.147Z,20.13
2023-01-29T21:36:08.482Z,20.73
2023-01-29T21:38:35.221Z,18.00
2023-01-29T21:41:03.538Z,18.30
2023-01-29T21:43:30.397Z,16.07
2023-01-29T21:45:58.946Z,17.47
2023-01-29T21:48:26.441Z,18.80
2023-01-29T21:50:53.299Z,19.20
2023-01-29T21:53:19.983Z,19.20
2023-01-29T21:55:47.012Z,19.17
2023-01-29T21:58:14.620Z,20.20
2023-01-29T22:00:41.405Z,19.03
2023-01-29T22:03:08.115Z,19.83
2023-01-29T22:05:35.075Z,19.30
2023-01-29T22:08:02.382Z,18.60
2023-01-29T22:10:30.558Z,15.57
2023-01-29T22:12:59.135Z,19.10
2023-01-29T22:15:25.809Z,19.60
2023-01-29T22:17:52.537Z,20.30
2023-01-29T22:20:19.780Z,17.03
2023-01-29T22:22:46.601Z,13.47
2023-01-29T22:25:13.294Z,15.40
2023-01-29T22:27:40.056Z,15.70
2023-01-29T22:30:07.553Z,14.57
2023-01-29T22:32:34.264Z,18.40
2023-01-29T22:35:00.920Z,13.90
2023-01-29T22:37:27.643Z,22.23
2023-01-29T22:39:54.261Z,17.37
2023-01-29T22:42:21.014Z,18.60
2023-01-29T22:44:48.446Z,17.10
2023-01-29T22:47:15.502Z,20.10
2023-01-29T22:49:44.525Z,19.03
2023-01-29T22:52:11.536Z,16.23
2023-01-29T22:54:43.342Z,18.83
2023-01-29T22:57:12.518Z,20.40
2023-01-29T22:59:39.813Z,18.57
2023-01-29T23:02:10.814Z,18.63
2023-01-29T23:04:37.485Z,20.03
2023-01-29T23:07:04.705Z,18.30
2023-01-29T23:09:31.394Z,17.97
2023-01-29T23:12:01.160Z,18.30
2023-01-29T23:14:27.796Z,19.70
2023-01-29T23:16:54.417Z,20.43
2023-01-29T23:19:21.130Z,20.53
2023-01-29T23:21:53.249Z,20.93
2023-01-29T23:24:19.897Z,19.83
2023-01-29T23:27:05.434Z,18.97
2023-01-29T23:29:32.046Z,21.33
2023-01-29T23:31:58.624Z,21.03
2023-01-29T23:34:25.306Z,18.47
2023-01-29T23:36:51.986Z,19.00
2023-01-29T23:39:20.450Z,13.73
2023-01-29T23:41:47.047Z,20.23
2023-01-29T23:44:14.475Z,20.50
2023-01-29T23:46:41.126Z,18.97
2023-01-29T23:49:08.505Z,18.57
2023-01-29T23:51:35.132Z,20.53
2023-01-29T23:54:01.854Z,21.00
2023-01-29T23:56:29.530Z,19.03
2023-01-29T23:58:57.840Z,21.80
